Time;durP1;ratioP1;P1;durP2;ratioP2;P2;SDS_P1;SDS_P2;PMS_P1;PMS_P2;Temp;Humidity;BMP_temperature;BMP_pressure;BME280_temperature;BME280_humidity;BME280_pressure;Samples;Min_cycle;Max_cycle;Signal;HPM_P1;HPM_P2
2022/12/11 00:00:37;;;;;;;29.47;17.17;;;;;;;;;;5096060;28;20235;-87
2022/12/11 00:03:04;;;;;;;28.17;17.53;;;;;;;;;;5096043;28;20201;-86
2022/12/11 00:05:32;;;;;;;27.90;16.43;;;;;;;;;;5095827;27;20324;-87
2022/12/11 00:08:00;;;;;;;26.40;16.37;;;;;;;;;;5096019;28;20208;-86
2022/12/11 00:10:27;;;;;;;26.77;16.40;;;;;;;;;;5096346;27;20232;-86
2022/12/11 00:12:54;;;;;;;25.83;16.90;;;;;;;;;;5105637;28;20704;-87
2022/12/11 00:15:21;;;;;;;27.57;16.23;;;;;;;;;;5095855;28;20719;-87
2022/12/11 00:17:48;;;;;;;27.57;16.17;;;;;;;;;;5096451;28;20224;-87
2022/12/11 00:20:16;;;;;;;29.73;17.83;;;;;;;;;;5096633;27;20213;-87
2022/12/11 00:22:43;;;;;;;25.80;16.47;;;;;;;;;;5098533;28;20245;-87
2022/12/11 00:25:11;;;;;;;30.03;16.37;;;;;;;;;;5109948;28;20684;-86
2022/12/11 00:27:39;;;;;;;26.63;17.37;;;;;;;;;;5105519;28;20204;-86
2022/12/11 00:30:07;;;;;;;29.63;17.07;;;;;;;;;;5117381;27;20580;-87
2022/12/11 00:32:34;;;;;;;27.37;16.70;;;;;;;;;;5116712;28;20200;-86
2022/12/11 00:35:01;;;;;;;26.77;16.93;;;;;;;;;;5117001;28;20238;-87
2022/12/11 00:37:28;;;;;;;28.47;18.07;;;;;;;;;;5105298;28;20221;-87
2022/12/11 00:39:55;;;;;;;32.13;16.80;;;;;;;;;;5096214;28;20205;-86
2022/12/11 00:42:24;;;;;;;26.50;16.20;;;;;;;;;;5095777;28;20233;-87
2022/12/11 00:44:51;;;;;;;29.87;17.73;;;;;;;;;;5095903;28;20235;-87
2022/12/11 00:47:18;;;;;;;24.07;16.27;;;;;;;;;;5103071;28;20248;-86
2022/12/11 00:49:45;;;;;;;25.67;16.83;;;;;;;;;;5116118;28;20200;-87
2022/12/11 00:52:12;;;;;;;25.70;17.20;;;;;;;;;;5115937;27;20231;-87
2022/12/11 00:54:39;;;;;;;27.67;16.57;;;;;;;;;;5121561;28;20235;-87
2022/12/11 00:57:06;;;;;;;29.37;17.40;;;;;;;;;;5115265;27;20228;-87
2022/12/11 00:59:35;;;;;;;27.87;16.50;;;;;;;;;;5100463;28;20229;-86
2022/12/11 01:02:02;;;;;;;30.47;16.93;;;;;;;;;;5094991;28;20517;-87
2022/12/11 01:04:29;;;;;;;27.47;17.50;;;;;;;;;;5095593;28;20229;-86
2022/12/11 01:06:56;;;;;;;28.37;16.80;;;;;;;;;;5094858;28;20228;-87
2022/12/11 01:12:10;;;;;;;23.47;15.80;;;;;;;;;;5089091;28;20266;-87
2022/12/11 01:14:38;;;;;;;25.80;17.10;;;;;;;;;;5115646;28;20251;-86
2022/12/11 01:17:06;;;;;;;30.17;16.87;;;;;;;;;;5115316;27;20704;-87
2022/12/11 01:19:33;;;;;;;24.97;16.37;;;;;;;;;;5115791;28;20231;-87
2022/12/11 01:22:00;;;;;;;26.27;16.87;;;;;;;;;;5115028;28;20239;-87
2022/12/11 01:24:27;;;;;;;25.80;16.80;;;;;;;;;;5115651;28;20661;-87
2022/12/11 01:26:54;;;;;;;27.97;17.23;;;;;;;;;;5111197;27;20248;-86
2022/12/11 01:29:21;;;;;;;27.07;15.70;;;;;;;;;;5094322;28;20224;-86
2022/12/11 01:31:49;;;;;;;27.20;17.27;;;;;;;;;;5103046;28;20228;-87
2022/12/11 01:34:17;;;;;;;29.63;17.17;;;;;;;;;;5114848;28;20239;-87
2022/12/11 01:36:44;;;;;;;25.63;16.03;;;;;;;;;;5113653;27;20236;-87
2022/12/11 01:39:11;;;;;;;27.27;16.53;;;;;;;;;;5094661;28;20221;-87
2022/12/11 01:41:38;;;;;;;28.63;16.40;;;;;;;;;;5094581;28;20236;-87
2022/12/11 01:44:06;;;;;;;30.67;16.63;;;;;;;;;;5094284;28;20729;-87
2022/12/11 01:46:34;;;;;;;30.50;17.47;;;;;;;;;;5094410;28;20594;-87
2022/12/11 01:49:03;;;;;;;25.50;16.27;;;;;;;;;;5073842;28;20198;-88
2022/12/11 01:51:32;;;;;;;26.90;17.10;;;;;;;;;;5073848;28;20240;-87
2022/12/11 01:54:01;;;;;;;29.67;17.53;;;;;;;;;;5074262;28;20737;-87
2022/12/11 01:56:31;;;;;;;30.40;17.97;;;;;;;;;;5109239;27;20726;-86
2022/12/11 01:59:01;;;;;;;26.17;16.73;;;;;;;;;;5114435;28;20572;-86
2022/12/11 02:01:31;;;;;;;30.10;16.77;;;;;;;;;;5114012;27;20232;-87
2022/12/11 02:03:59;;;;;;;25.57;17.93;;;;;;;;;;5106625;28;20228;-86
2022/12/11 02:06:32;;;;;;;27.90;16.73;;;;;;;;;;5093820;28;20237;-86
2022/12/11 02:08:59;;;;;;;28.80;17.10;;;;;;;;;;5094712;28;20291;-86
2022/12/11 02:11:30;;;;;;;30.57;18.17;;;;;;;;;;5093684;28;20230;-86
2022/12/11 02:14:03;;;;;;;30.20;17.97;;;;;;;;;;5103784;28;20235;-86
2022/12/11 02:16:35;;;;;;;28.13;17.50;;;;;;;;;;5113752;27;20228;-86
2022/12/11 02:19:08;;;;;;;29.10;17.40;;;;;;;;;;5114312;28;20591;-86
2022/12/11 02:21:39;;;;;;;25.70;16.20;;;;;;;;;;5112742;27;20334;-86
2022/12/11 02:24:24;;;;;;;27.40;16.40;;;;;;;;;;5113327;28;20219;-86
2022/12/11 02:26:56;;;;;;;27.93;16.67;;;;;;;;;;5113292;27;20242;-87
2022/12/11 02:29:27;;;;;;;27.57;16.97;;;;;;;;;;5113739;28;20226;-86
2022/12/11 02:31:58;;;;;;;28.13;17.87;;;;;;;;;;5107284;27;20237;-86
2022/12/11 02:34:28;;;;;;;32.90;17.00;;;;;;;;;;5113239;22;20233;-85
2022/12/11 02:37:00;;;;;;;28.30;17.40;;;;;;;;;;5071312;28;20605;-84
2022/12/11 02:39:27;;;;;;;28.17;17.70;;;;;;;;;;5071437;28;20221;-84
2022/12/11 02:41:55;;;;;;;28.07;17.67;;;;;;;;;;5071099;28;20237;-84
2022/12/11 02:44:25;;;;;;;28.93;17.07;;;;;;;;;;5071814;28;20232;-84
2022/12/11 02:46:54;;;;;;;25.40;16.87;;;;;;;;;;5071201;28;20246;-84
2022/12/11 02:49:21;;;;;;;27.47;17.40;;;;;;;;;;5071385;28;20208;-84
2022/12/11 02:51:49;;;;;;;27.87;16.20;;;;;;;;;;5070981;28;20603;-85
2022/12/11 02:54:19;;;;;;;30.40;17.50;;;;;;;;;;5072382;28;20212;-84
2022/12/11 02:56:48;;;;;;;28.40;17.50;;;;;;;;;;5073834;28;20234;-84
2022/12/11 02:59:16;;;;;;;27.43;17.07;;;;;;;;;;5071287;28;20229;-84
2022/12/11 03:01:44;;;;;;;26.70;16.90;;;;;;;;;;5070777;28;20241;-84
2022/12/11 03:04:12;;;;;;;27.27;17.73;;;;;;;;;;5071175;28;20206;-84
2022/12/11 03:06:43;;;;;;;28.27;17.37;;;;;;;;;;5070706;28;20723;-84
2022/12/11 03:09:10;;;;;;;25.37;16.17;;;;;;;;;;5071107;28;20190;-84
2022/12/11 03:11:37;;;;;;;26.60;17.07;;;;;;;;;;5070942;28;20246;-84
2022/12/11 03:14:04;;;;;;;29.10;17.73;;;;;;;;;;5072242;28;20201;-84
2022/12/11 03:16:34;;;;;;;26.33;16.87;;;;;;;;;;5073287;28;20225;-84
2022/12/11 03:19:06;;;;;;;31.33;18.33;;;;;;;;;;5074685;28;20206;-84
2022/12/11 03:21:37;;;;;;;29.00;17.20;;;;;;;;;;5070800;28;20743;-84
2022/12/11 03:24:06;;;;;;;27.20;16.57;;;;;;;;;;5071472;28;20547;-84
2022/12/11 03:26:37;;;;;;;26.33;17.30;;;;;;;;;;5070787;28;20257;-84
2022/12/11 03:29:05;;;;;;;28.23;18.47;;;;;;;;;;5071330;28;20186;-84
2022/12/11 03:31:44;;;;;;;30.20;18.67;;;;;;;;;;5070372;28;20241;-84
2022/12/11 03:34:14;;;;;;;25.70;17.70;;;;;;;;;;5073579;28;20737;-84
2022/12/11 03:36:44;;;;;;;28.83;18.07;;;;;;;;;;5074274;28;20233;-84
2022/12/11 03:39:13;;;;;;;29.90;18.07;;;;;;;;;;5074754;28;20749;-84
2022/12/11 03:41:41;;;;;;;33.37;19.23;;;;;;;;;;5074070;28;20230;-84
2022/12/11 03:44:08;;;;;;;33.60;19.40;;;;;;;;;;5074343;28;20205;-85
2022/12/11 03:46:37;;;;;;;32.60;17.63;;;;;;;;;;5073892;28;20233;-85
2022/12/11 03:49:06;;;;;;;26.57;17.03;;;;;;;;;;5074605;28;20320;-84
2022/12/11 03:51:34;;;;;;;32.57;18.77;;;;;;;;;;5074046;28;20244;-84
2022/12/11 03:54:03;;;;;;;31.93;18.03;;;;;;;;;;5074612;28;20207;-84
2022/12/11 03:56:31;;;;;;;28.80;18.07;;;;;;;;;;5073844;28;20718;-84
2022/12/11 03:58:59;;;;;;;28.17;17.77;;;;;;;;;;5074272;28;20221;-85
2022/12/11 04:01:26;;;;;;;29.50;17.53;;;;;;;;;;5074260;28;20288;-85
2022/12/11 04:03:53;;;;;;;31.10;18.30;;;;;;;;;;5074575;28;20211;-85
2022/12/11 04:06:20;;;;;;;31.33;18.03;;;;;;;;;;5073680;28;20239;-84
2022/12/11 04:08:47;;;;;;;27.17;18.00;;;;;;;;;;5074016;28;20215;-85
2022/12/11 04:11:34;;;;;;;32.33;19.13;;;;;;;;;;5073735;28;20240;-85
2022/12/11 04:16:46;;;;;;;31.00;18.43;;;;;;;;;;5053550;28;20556;-84
2022/12/11 04:24:54;;;;;;;29.97;18.30;;;;;;;;;;5011933;28;20276;-84
2022/12/11 04:30:09;;;;;;;31.20;19.27;;;;;;;;;;5073531;28;20194;-85
2022/12/11 04:32:36;;;;;;;30.23;19.30;;;;;;;;;;5073521;28;20210;-84
2022/12/11 04:35:03;;;;;;;29.73;18.03;;;;;;;;;;5073142;28;20235;-85
2022/12/11 04:37:30;;;;;;;30.60;18.10;;;;;;;;;;5073681;28;20711;-84
2022/12/11 04:39:58;;;;;;;32.80;18.93;;;;;;;;;;5073239;28;20225;-84
2022/12/11 04:42:26;;;;;;;33.67;19.50;;;;;;;;;;5072820;28;20603;-85
2022/12/11 04:44:53;;;;;;;29.93;19.60;;;;;;;;;;5072432;28;20233;-85
2022/12/11 04:47:20;;;;;;;28.60;17.63;;;;;;;;;;5073141;28;20607;-85
2022/12/11 04:49:47;;;;;;;31.67;19.70;;;;;;;;;;5073518;28;20291;-84
2022/12/11 04:52:14;;;;;;;31.17;19.33;;;;;;;;;;5073086;28;20263;-84
2022/12/11 04:54:42;;;;;;;31.33;18.70;;;;;;;;;;5073416;28;20226;-84
2022/12/11 04:57:09;;;;;;;30.50;19.27;;;;;;;;;;5077027;28;20230;-84
2022/12/11 04:59:37;;;;;;;30.77;18.93;;;;;;;;;;5075594;28;20229;-85
2022/12/11 05:02:05;;;;;;;31.50;18.30;;;;;;;;;;5072690;28;20232;-85
2022/12/11 05:04:32;;;;;;;33.20;19.87;;;;;;;;;;5072917;28;20222;-85
2022/12/11 05:06:59;;;;;;;30.57;18.87;;;;;;;;;;5072356;28;20234;-85
2022/12/11 05:09:26;;;;;;;31.80;19.33;;;;;;;;;;5072726;28;20207;-85
2022/12/11 05:11:54;;;;;;;37.47;20.77;;;;;;;;;;5072001;28;20237;-85
2022/12/11 05:14:21;;;;;;;33.93;19.60;;;;;;;;;;5072598;28;20603;-85
2022/12/11 05:16:49;;;;;;;33.63;18.87;;;;;;;;;;5072423;28;20449;-85
2022/12/11 05:19:16;;;;;;;29.43;17.93;;;;;;;;;;5072110;28;20223;-85
2022/12/11 05:21:43;;;;;;;34.00;20.53;;;;;;;;;;5072132;28;20238;-85
2022/12/11 05:24:10;;;;;;;33.77;20.10;;;;;;;;;;5072722;28;20205;-85
2022/12/11 05:26:37;;;;;;;36.00;21.13;;;;;;;;;;5072182;28;20249;-84
2022/12/11 05:29:04;;;;;;;33.17;20.30;;;;;;;;;;5072366;28;20205;-85
2022/12/11 05:31:32;;;;;;;31.50;20.07;;;;;;;;;;5071986;28;20238;-85
2022/12/11 05:34:00;;;;;;;29.40;18.97;;;;;;;;;;5072552;28;20215;-85
2022/12/11 05:36:28;;;;;;;31.57;19.63;;;;;;;;;;5071873;28;20238;-85
2022/12/11 05:38:55;;;;;;;30.17;18.50;;;;;;;;;;5071965;28;20686;-85
2022/12/11 05:41:23;;;;;;;32.13;18.30;;;;;;;;;;5071878;28;20238;-85
2022/12/11 05:43:50;;;;;;;30.90;20.03;;;;;;;;;;5072480;28;20209;-84
2022/12/11 05:46:18;;;;;;;28.63;18.10;;;;;;;;;;5071605;28;20253;-85
2022/12/11 05:48:46;;;;;;;35.67;20.07;;;;;;;;;;5071950;28;20205;-84
2022/12/11 05:51:15;;;;;;;33.77;19.70;;;;;;;;;;5071727;28;20773;-84
2022/12/11 05:53:43;;;;;;;30.07;18.70;;;;;;;;;;5071876;28;20202;-85
2022/12/11 05:56:12;;;;;;;32.80;19.07;;;;;;;;;;5071123;28;20713;-85
2022/12/11 05:58:39;;;;;;;29.90;18.47;;;;;;;;;;5071691;28;20211;-85
2022/12/11 06:01:07;;;;;;;34.50;19.27;;;;;;;;;;5071903;28;20238;-85
2022/12/11 06:03:35;;;;;;;29.07;18.93;;;;;;;;;;5072977;28;20211;-86
2022/12/11 06:06:02;;;;;;;32.43;19.43;;;;;;;;;;5072467;28;20234;-83
2022/12/11 06:08:30;;;;;;;32.57;18.80;;;;;;;;;;5072223;28;20202;-83
2022/12/11 06:10:57;;;;;;;34.53;19.37;;;;;;;;;;5071613;28;20233;-85
2022/12/11 06:13:24;;;;;;;29.37;18.37;;;;;;;;;;5072170;28;20207;-86
2022/12/11 06:15:52;;;;;;;32.97;19.83;;;;;;;;;;5071578;28;20242;-86
2022/12/11 06:18:19;;;;;;;40.23;19.43;;;;;;;;;;5071521;28;20206;-85
2022/12/11 06:20:46;;;;;;;32.77;19.10;;;;;;;;;;5071391;28;20241;-85
2022/12/11 06:23:13;;;;;;;31.00;18.93;;;;;;;;;;5071774;28;20592;-85
2022/12/11 06:25:41;;;;;;;33.10;18.67;;;;;;;;;;5071481;28;20235;-85
2022/12/11 06:28:08;;;;;;;33.93;20.57;;;;;;;;;;5071489;28;20214;-85
2022/12/11 06:30:36;;;;;;;30.97;19.53;;;;;;;;;;5071581;28;20240;-85
2022/12/11 06:33:03;;;;;;;31.77;19.37;;;;;;;;;;5071709;28;20709;-85
2022/12/11 06:35:30;;;;;;;32.03;19.37;;;;;;;;;;5071187;28;20709;-85
2022/12/11 06:37:57;;;;;;;35.00;20.83;;;;;;;;;;5071590;28;20206;-85
2022/12/11 06:40:24;;;;;;;32.93;19.93;;;;;;;;;;5071234;28;20695;-85
2022/12/11 06:42:54;;;;;;;36.27;20.17;;;;;;;;;;5072234;28;20206;-85
2022/12/11 06:45:21;;;;;;;34.47;19.60;;;;;;;;;;5071177;28;20248;-85
2022/12/11 06:47:48;;;;;;;35.77;19.57;;;;;;;;;;5071424;28;20202;-85
2022/12/11 06:50:15;;;;;;;29.73;17.07;;;;;;;;;;5071289;28;20206;-85
2022/12/11 06:52:42;;;;;;;31.13;19.47;;;;;;;;;;5071699;28;20214;-84
2022/12/11 06:55:10;;;;;;;34.17;20.73;;;;;;;;;;5071149;28;20226;-85
2022/12/11 06:57:37;;;;;;;34.73;19.93;;;;;;;;;;5071569;28;20206;-85
2022/12/11 07:00:06;;;;;;;32.40;20.53;;;;;;;;;;5070820;28;20581;-85
2022/12/11 07:02:33;;;;;;;31.53;20.23;;;;;;;;;;5071290;28;20206;-85
2022/12/11 07:05:00;;;;;;;34.10;19.47;;;;;;;;;;5071530;28;20222;-85
2022/12/11 07:07:27;;;;;;;29.50;18.53;;;;;;;;;;5071212;28;20231;-83
2022/12/11 07:09:54;;;;;;;30.57;17.77;;;;;;;;;;5075039;28;20201;-83
2022/12/11 07:12:21;;;;;;;31.27;17.97;;;;;;;;;;5074966;28;20245;-83
2022/12/11 07:14:48;;;;;;;32.50;19.30;;;;;;;;;;5075357;28;20237;-83
2022/12/11 07:17:17;;;;;;;32.10;18.10;;;;;;;;;;5074297;28;20268;-83
2022/12/11 07:19:44;;;;;;;36.33;21.07;;;;;;;;;;5075002;28;20328;-83
2022/12/11 07:22:11;;;;;;;34.37;19.73;;;;;;;;;;5074184;28;20364;-83
2022/12/11 07:24:38;;;;;;;32.63;18.67;;;;;;;;;;5074828;28;20231;-83
2022/12/11 07:27:05;;;;;;;31.97;19.37;;;;;;;;;;5074294;28;20230;-83
2022/12/11 07:29:32;;;;;;;37.60;20.57;;;;;;;;;;5074809;28;20212;-83
2022/12/11 07:32:00;;;;;;;35.77;20.30;;;;;;;;;;5074274;28;20235;-83
2022/12/11 07:34:28;;;;;;;33.63;20.03;;;;;;;;;;5074234;28;21024;-83
2022/12/11 07:36:55;;;;;;;33.77;20.17;;;;;;;;;;5074171;28;20731;-83
2022/12/11 07:39:22;;;;;;;35.20;20.83;;;;;;;;;;5074541;28;20211;-83
2022/12/11 07:41:49;;;;;;;38.17;21.03;;;;;;;;;;5074095;28;20249;-83
2022/12/11 07:44:16;;;;;;;33.60;20.67;;;;;;;;;;5074298;28;20201;-83
2022/12/11 07:46:43;;;;;;;30.63;18.93;;;;;;;;;;5074218;28;20250;-83
2022/12/11 07:49:10;;;;;;;32.73;20.23;;;;;;;;;;5074647;28;20482;-82
2022/12/11 07:51:40;;;;;;;36.13;21.47;;;;;;;;;;5073851;28;20244;-83
2022/12/11 07:54:09;;;;;;;34.27;20.37;;;;;;;;;;5074501;28;20207;-83
2022/12/11 07:56:37;;;;;;;33.27;20.43;;;;;;;;;;5074110;28;20227;-83
2022/12/11 07:59:05;;;;;;;31.30;18.93;;;;;;;;;;5074032;28;20220;-83
2022/12/11 08:01:34;;;;;;;32.73;18.10;;;;;;;;;;5073864;28;20242;-83
2022/12/11 08:04:01;;;;;;;27.57;18.50;;;;;;;;;;5074198;28;20207;-83
2022/12/11 08:06:29;;;;;;;30.60;17.17;;;;;;;;;;5074121;28;20235;-83
2022/12/11 08:08:58;;;;;;;29.20;18.47;;;;;;;;;;5074076;28;20216;-83
2022/12/11 08:11:26;;;;;;;33.73;19.10;;;;;;;;;;5073299;28;20221;-83
2022/12/11 08:13:53;;;;;;;27.40;17.83;;;;;;;;;;5074158;28;20203;-83
2022/12/11 08:16:20;;;;;;;31.73;18.77;;;;;;;;;;5073445;28;20243;-83
2022/12/11 08:18:48;;;;;;;32.57;19.40;;;;;;;;;;5073482;28;20217;-83
2022/12/11 08:21:16;;;;;;;30.83;18.73;;;;;;;;;;5073151;28;20246;-82
2022/12/11 08:23:43;;;;;;;29.63;18.83;;;;;;;;;;5073774;28;20202;-85
2022/12/11 08:26:13;;;;;;;27.43;18.07;;;;;;;;;;5072657;28;20240;-83
2022/12/11 08:28:40;;;;;;;29.80;19.73;;;;;;;;;;5073049;28;20206;-82
2022/12/11 08:31:08;;;;;;;28.93;18.57;;;;;;;;;;5072745;28;20714;-82
2022/12/11 08:33:36;;;;;;;33.73;19.20;;;;;;;;;;5073844;28;20213;-82
2022/12/11 08:36:04;;;;;;;37.63;19.80;;;;;;;;;;5073198;28;20241;-82
2022/12/11 08:38:31;;;;;;;33.67;18.53;;;;;;;;;;5073364;28;20208;-81
2022/12/11 08:40:58;;;;;;;33.37;18.37;;;;;;;;;;5073126;28;20742;-81
2022/12/11 08:43:26;;;;;;;33.27;18.63;;;;;;;;;;5073858;28;20209;-81
2022/12/11 08:45:53;;;;;;;31.43;19.13;;;;;;;;;;5072942;28;20241;-81
2022/12/11 08:48:20;;;;;;;31.90;19.00;;;;;;;;;;5074284;28;20218;-81
2022/12/11 08:50:47;;;;;;;34.27;18.97;;;;;;;;;;5073126;28;20239;-81
2022/12/11 08:53:15;;;;;;;29.37;19.90;;;;;;;;;;5073274;28;20218;-81
2022/12/11 08:55:42;;;;;;;32.83;18.20;;;;;;;;;;5072461;28;20596;-82
2022/12/11 08:58:09;;;;;;;32.17;19.27;;;;;;;;;;5073224;28;20241;-81
2022/12/11 09:00:37;;;;;;;34.63;19.30;;;;;;;;;;5072866;28;20290;-81
2022/12/11 09:03:04;;;;;;;32.90;20.20;;;;;;;;;;5073166;28;20204;-81
2022/12/11 09:05:31;;;;;;;35.97;18.47;;;;;;;;;;5072528;28;20385;-82
2022/12/11 09:07:59;;;;;;;36.17;19.67;;;;;;;;;;5072920;28;20206;-82
2022/12/11 09:10:26;;;;;;;32.97;19.97;;;;;;;;;;5074588;28;20259;-83
2022/12/11 09:12:53;;;;;;;30.03;18.20;;;;;;;;;;5073116;28;20197;-83
2022/12/11 09:15:20;;;;;;;36.67;19.47;;;;;;;;;;5072535;28;20614;-82
2022/12/11 09:17:48;;;;;;;29.63;18.73;;;;;;;;;;5074433;28;20608;-81
2022/12/11 09:20:15;;;;;;;34.47;20.53;;;;;;;;;;5072693;28;20223;-81
2022/12/11 09:22:42;;;;;;;32.30;20.83;;;;;;;;;;5073099;28;20218;-81
2022/12/11 09:25:10;;;;;;;33.67;20.17;;;;;;;;;;5073077;28;20735;-82
2022/12/11 09:27:37;;;;;;;32.87;20.27;;;;;;;;;;5073383;28;20302;-81
2022/12/11 09:30:05;;;;;;;35.13;19.60;;;;;;;;;;5072680;28;20206;-82
2022/12/11 09:32:32;;;;;;;33.43;19.07;;;;;;;;;;5072525;28;20212;-83
2022/12/11 09:35:00;;;;;;;30.57;19.50;;;;;;;;;;5072723;28;20239;-82
2022/12/11 09:37:27;;;;;;;33.70;19.27;;;;;;;;;;5072839;28;20696;-83
2022/12/11 09:39:54;;;;;;;30.83;20.07;;;;;;;;;;5072650;28;20210;-81
2022/12/11 09:42:26;;;;;;;38.40;22.13;;;;;;;;;;5071813;28;20238;-81
2022/12/11 09:44:54;;;;;;;37.83;20.10;;;;;;;;;;5074089;28;20227;-82
2022/12/11 09:47:23;;;;;;;30.47;19.50;;;;;;;;;;5072810;28;20841;-82
2022/12/11 09:49:54;;;;;;;35.20;19.70;;;;;;;;;;5072142;28;20587;-81
2022/12/11 09:52:24;;;;;;;35.40;20.13;;;;;;;;;;5072195;28;20273;-82
2022/12/11 09:54:53;;;;;;;33.03;19.07;;;;;;;;;;5072606;28;20228;-82
2022/12/11 09:57:28;;;;;;;36.83;20.77;;;;;;;;;;5071546;28;20720;-82
2022/12/11 10:00:03;;;;;;;34.40;19.07;;;;;;;;;;5073118;28;20188;-81
2022/12/11 10:02:39;;;;;;;34.63;21.40;;;;;;;;;;5072613;28;20233;-81
2022/12/11 10:05:11;;;;;;;36.87;22.50;;;;;;;;;;5071555;28;20771;-83
2022/12/11 10:07:42;;;;;;;31.43;19.83;;;;;;;;;;5072882;28;20194;-82
2022/12/11 10:10:14;;;;;;;33.50;19.43;;;;;;;;;;5073370;28;20208;-83
2022/12/11 10:12:47;;;;;;;33.07;20.33;;;;;;;;;;5071918;28;20214;-82
2022/12/11 10:15:24;;;;;;;32.90;19.90;;;;;;;;;;5071217;28;20223;-82
2022/12/11 10:17:54;;;;;;;36.80;20.30;;;;;;;;;;5071309;28;20221;-85
2022/12/11 10:20:23;;;;;;;32.43;19.87;;;;;;;;;;5071374;28;20188;-83
2022/12/11 10:22:52;;;;;;;40.43;20.93;;;;;;;;;;5072135;28;20220;-83
2022/12/11 10:25:21;;;;;;;36.50;21.30;;;;;;;;;;5071430;28;20294;-83
2022/12/11 10:27:49;;;;;;;32.20;20.40;;;;;;;;;;5071829;28;20672;-83
2022/12/11 10:30:17;;;;;;;34.03;20.30;;;;;;;;;;5072111;28;20297;-83
2022/12/11 10:32:49;;;;;;;37.40;21.60;;;;;;;;;;5072214;28;20212;-82
2022/12/11 10:35:19;;;;;;;32.17;20.83;;;;;;;;;;5071311;28;20227;-83
2022/12/11 10:37:46;;;;;;;35.33;20.87;;;;;;;;;;5071633;28;20218;-82
2022/12/11 10:40:15;;;;;;;35.27;19.67;;;;;;;;;;5071587;28;20209;-82
2022/12/11 10:42:52;;;;;;;37.73;20.27;;;;;;;;;;5072340;28;20220;-81
2022/12/11 10:45:19;;;;;;;37.20;21.10;;;;;;;;;;5075287;28;20707;-81
2022/12/11 10:47:46;;;;;;;37.23;21.67;;;;;;;;;;5075671;28;20208;-81
2022/12/11 10:50:22;;;;;;;39.27;22.10;;;;;;;;;;5075638;28;20214;-81
2022/12/11 10:52:50;;;;;;;35.60;21.03;;;;;;;;;;5075647;28;20683;-80
2022/12/11 10:55:21;;;;;;;39.27;21.73;;;;;;;;;;5075104;28;20232;-82
2022/12/11 10:57:54;;;;;;;38.43;21.40;;;;;;;;;;5075557;28;20213;-83
2022/12/11 11:00:32;;;;;;;38.60;22.00;;;;;;;;;;5075441;28;20200;-83
2022/12/11 11:02:59;;;;;;;32.93;20.00;;;;;;;;;;5075674;28;20667;-84
2022/12/11 11:05:30;;;;;;;37.87;22.47;;;;;;;;;;5075210;28;20247;-83
2022/12/11 11:08:05;;;;;;;33.93;20.77;;;;;;;;;;5075721;28;20239;-83
2022/12/11 11:10:33;;;;;;;40.43;21.10;;;;;;;;;;5075119;28;20597;-83
2022/12/11 11:13:01;;;;;;;40.43;21.40;;;;;;;;;;5075339;28;20661;-83
2022/12/11 11:15:30;;;;;;;34.23;21.10;;;;;;;;;;5080095;28;20241;-83
2022/12/11 11:17:58;;;;;;;36.00;21.17;;;;;;;;;;5077014;28;20283;-84
2022/12/11 11:20:27;;;;;;;35.03;19.73;;;;;;;;;;5075536;28;20256;-84
2022/12/11 11:22:55;;;;;;;43.67;22.40;;;;;;;;;;5074091;28;20235;-84
2022/12/11 11:25:23;;;;;;;34.53;20.20;;;;;;;;;;5074149;28;20245;-85
2022/12/11 11:27:53;;;;;;;34.37;21.17;;;;;;;;;;5074343;28;20235;-84
2022/12/11 11:30:22;;;;;;;39.70;22.20;;;;;;;;;;5074012;28;20208;-85
2022/12/11 11:32:51;;;;;;;36.60;20.67;;;;;;;;;;5074496;28;20211;-83
2022/12/11 11:35:19;;;;;;;33.47;20.47;;;;;;;;;;5074096;28;20707;-85
2022/12/11 11:37:47;;;;;;;34.73;20.90;;;;;;;;;;5073944;28;20208;-84
2022/12/11 11:40:18;;;;;;;38.17;22.03;;;;;;;;;;5074326;28;20567;-83
2022/12/11 11:42:50;;;;;;;38.53;21.80;;;;;;;;;;5074772;28;20247;-84
2022/12/11 11:45:22;;;;;;;34.97;20.70;;;;;;;;;;5074154;28;20228;-84
2022/12/11 11:47:55;;;;;;;33.90;20.37;;;;;;;;;;5075367;28;20188;-84
2022/12/11 11:50:25;;;;;;;31.30;19.40;;;;;;;;;;5074463;28;20236;-84
2022/12/11 11:52:54;;;;;;;38.97;21.17;;;;;;;;;;5075728;28;20212;-84
2022/12/11 11:55:28;;;;;;;37.03;20.97;;;;;;;;;;5074213;28;20229;-81
2022/12/11 11:57:57;;;;;;;34.60;20.90;;;;;;;;;;5074077;28;20662;-80
2022/12/11 12:00:27;;;;;;;38.63;22.73;;;;;;;;;;5073189;28;20250;-83
2022/12/11 12:02:56;;;;;;;37.80;20.87;;;;;;;;;;5075389;28;20239;-83
2022/12/11 12:05:26;;;;;;;32.47;20.90;;;;;;;;;;5072911;28;20240;-80
2022/12/11 12:08:00;;;;;;;31.47;18.33;;;;;;;;;;5073585;28;20212;-83
2022/12/11 12:10:31;;;;;;;33.27;19.57;;;;;;;;;;5071478;28;20601;-83
2022/12/11 12:13:02;;;;;;;33.83;19.50;;;;;;;;;;5074537;28;20201;-84
2022/12/11 12:15:36;;;;;;;35.83;20.77;;;;;;;;;;5072319;28;20247;-82
2022/12/11 12:18:08;;;;;;;35.37;20.70;;;;;;;;;;5073143;28;20202;-84
2022/12/11 12:20:39;;;;;;;37.57;20.53;;;;;;;;;;5072248;28;20242;-84
2022/12/11 12:23:16;;;;;;;31.77;18.63;;;;;;;;;;5072531;28;20232;-84
2022/12/11 12:25:45;;;;;;;35.17;20.23;;;;;;;;;;5071913;28;20631;-84
2022/12/11 12:28:19;;;;;;;33.97;20.00;;;;;;;;;;5072537;28;20210;-84
2022/12/11 12:30:52;;;;;;;28.33;18.50;;;;;;;;;;5072066;28;20318;-84
2022/12/11 12:33:25;;;;;;;34.03;19.93;;;;;;;;;;5069907;28;20238;-84
2022/12/11 12:35:56;;;;;;;28.63;19.70;;;;;;;;;;5071902;28;20244;-85
2022/12/11 12:38:27;;;;;;;35.83;21.17;;;;;;;;;;5071583;28;20205;-84
2022/12/11 12:40:59;;;;;;;30.65;19.00;;;;;;;;;;5070317;28;20225;-84
2022/12/11 12:43:41;;;;;;;35.30;19.17;;;;;;;;;;5071704;28;20774;-84
2022/12/11 12:46:12;;;;;;;30.77;18.73;;;;;;;;;;5071244;28;20236;-85
2022/12/11 12:48:40;;;;;;;30.53;18.63;;;;;;;;;;5071370;28;20222;-84
2022/12/11 12:51:07;;;;;;;33.00;20.03;;;;;;;;;;5070559;28;20232;-84
2022/12/11 12:53:36;;;;;;;29.20;17.60;;;;;;;;;;5072477;28;20668;-85
2022/12/11 12:56:04;;;;;;;33.83;20.20;;;;;;;;;;5070950;28;20231;-83
2022/12/11 12:58:40;;;;;;;32.13;18.70;;;;;;;;;;5072366;28;20209;-81
2022/12/11 13:01:08;;;;;;;35.70;20.47;;;;;;;;;;5070456;28;20227;-83
2022/12/11 13:03:38;;;;;;;33.33;21.07;;;;;;;;;;5072354;28;20219;-82
2022/12/11 13:06:07;;;;;;;36.90;20.17;;;;;;;;;;5070825;28;20771;-82
2022/12/11 13:08:36;;;;;;;31.63;18.83;;;;;;;;;;5072654;28;20211;-82
2022/12/11 13:11:05;;;;;;;31.27;18.77;;;;;;;;;;5071449;28;20244;-82
2022/12/11 13:13:35;;;;;;;33.87;19.17;;;;;;;;;;5072201;28;20212;-82
2022/12/11 13:16:09;;;;;;;35.83;19.33;;;;;;;;;;5071499;28;20236;-82
2022/12/11 13:18:39;;;;;;;30.33;19.60;;;;;;;;;;5072258;28;20218;-82
2022/12/11 13:21:21;;;;;;;31.93;19.20;;;;;;;;;;5070982;28;20246;-82
2022/12/11 13:23:48;;;;;;;32.93;18.77;;;;;;;;;;5071845;28;20296;-83
2022/12/11 13:26:27;;;;;;;34.40;18.70;;;;;;;;;;5071340;28;20251;-83
2022/12/11 13:28:54;;;;;;;32.67;19.47;;;;;;;;;;5071762;28;20197;-83
2022/12/11 13:31:39;;;;;;;33.57;20.50;;;;;;;;;;5070989;28;20243;-83
2022/12/11 13:34:16;;;;;;;32.63;19.10;;;;;;;;;;5077734;28;20196;-83
2022/12/11 13:36:47;;;;;;;35.97;20.20;;;;;;;;;;5091843;28;20239;-83
2022/12/11 13:39:17;;;;;;;37.37;19.73;;;;;;;;;;5077730;28;20212;-83
2022/12/11 13:41:46;;;;;;;35.87;20.67;;;;;;;;;;5072101;28;20239;-83
2022/12/11 13:44:16;;;;;;;34.03;21.00;;;;;;;;;;5070281;28;20212;-83
2022/12/11 13:46:43;;;;;;;33.63;20.37;;;;;;;;;;5071465;28;20240;-83
2022/12/11 13:49:19;;;;;;;32.90;19.67;;;;;;;;;;5071379;28;20280;-83
2022/12/11 13:51:53;;;;;;;28.23;16.83;;;;;;;;;;5070755;28;20246;-83
2022/12/11 13:54:20;;;;;;;28.57;17.60;;;;;;;;;;5071463;28;20208;-83
2022/12/11 13:56:55;;;;;;;32.70;20.00;;;;;;;;;;5070545;28;20241;-83
2022/12/11 13:59:24;;;;;;;31.47;19.23;;;;;;;;;;5071303;28;20212;-83
2022/12/11 14:01:54;;;;;;;30.23;18.27;;;;;;;;;;5070933;28;20700;-83
2022/12/11 14:04:22;;;;;;;28.07;17.23;;;;;;;;;;5071404;28;20211;-83
2022/12/11 14:06:49;;;;;;;25.37;15.10;;;;;;;;;;5071106;28;20328;-83
2022/12/11 14:09:19;;;;;;;28.17;15.90;;;;;;;;;;5072726;28;20672;-83
2022/12/11 14:11:46;;;;;;;30.70;17.17;;;;;;;;;;5078461;28;20225;-82
2022/12/11 14:14:18;;;;;;;28.87;16.27;;;;;;;;;;5073006;28;20211;-82
2022/12/11 14:16:47;;;;;;;32.03;18.63;;;;;;;;;;5071180;28;20239;-82
2022/12/11 14:19:15;;;;;;;29.47;17.43;;;;;;;;;;5071291;28;20215;-83
2022/12/11 14:21:42;;;;;;;31.17;17.80;;;;;;;;;;5070658;28;20248;-82
2022/12/11 14:24:12;;;;;;;31.83;18.47;;;;;;;;;;5071046;28;20240;-82
2022/12/11 14:26:41;;;;;;;26.80;16.97;;;;;;;;;;5070780;28;20289;-82
2022/12/11 14:29:08;;;;;;;31.80;17.77;;;;;;;;;;5071731;28;20235;-82
2022/12/11 14:31:37;;;;;;;31.90;18.27;;;;;;;;;;5071363;28;20242;-83
2022/12/11 14:34:06;;;;;;;30.87;18.53;;;;;;;;;;5070994;28;20258;-82
2022/12/11 14:36:35;;;;;;;31.17;18.20;;;;;;;;;;5103985;22;20746;-80
2022/12/11 14:39:04;;;;;;;32.63;19.10;;;;;;;;;;5089969;28;20207;-80